Hunt Field Lander US
ICAO: KLND
IATA: LND
Category: Medium
Scheduled Services: No

Elevation: 5586 ft
TransAlt. 18000 ft.

Airport Communications:
ASOS:118.15
CTAF/UNICOM:122.8

KLND Zoom In..

Runways:

(A) RW 03 length 5007 ft width 100 ft
---- / hdg 36

(B) RW 21 length 5007 ft width 100 ft
---- / hdg 216

Location; KLND
Day. 26 / Time. 10.53 Zulu
* Altimeter: 30.04
* Temperature: 10° c. 50°f.
* Wind from: 270° Speed 05 kn.
Dewpoint: -02° c.
Visibility: 10 Statute Miles.
Clouds: Few 1000 ft.

KLND 261053Z AUTO 27005KT 10SM FEW100 10/M02 A3004 RMK AO2 SLP128 T01001022


Wind From 270°
Speed 05 kn.

 
 
jpsmedia worldairports.se 2020   terms of use